createdAt,value
2022-07-28T00:02:14.767Z,99992.72
2022-07-28T00:04:43.041Z,99989.62
2022-07-28T00:07:12.073Z,99991.56
2022-07-28T00:09:40.050Z,99990.59
2022-07-28T00:12:09.469Z,99993.59
2022-07-28T00:14:37.655Z,99994.56
2022-07-28T00:17:05.621Z,99996.25
2022-07-28T00:19:34.567Z,99995.44
2022-07-28T00:22:06.486Z,99988.19
2022-07-28T00:24:34.978Z,99987.50
2022-07-28T00:27:03.115Z,99985.37
2022-07-28T00:29:49.856Z,99972.53
2022-07-28T00:32:20.751Z,99967.41
2022-07-28T00:34:53.671Z,99980.47
2022-07-28T00:37:22.338Z,99978.25
2022-07-28T00:39:50.386Z,99976.59
2022-07-28T00:42:19.560Z,99978.78
2022-07-28T00:44:47.749Z,99971.37
2022-07-28T00:47:16.036Z,99969.75
2022-07-28T00:49:45.102Z,99967.97
2022-07-28T00:52:17.238Z,99969.47
2022-07-28T00:54:45.732Z,99968.50
2022-07-28T00:57:15.495Z,99965.81
2022-07-28T00:59:43.556Z,99968.97
2022-07-28T01:02:11.406Z,99968.50
2022-07-28T01:04:40.613Z,99971.88
2022-07-28T01:07:15.839Z,99973.19
2022-07-28T01:09:58.575Z,99972.06
2022-07-28T01:12:32.605Z,99966.75
2022-07-28T01:15:13.263Z,99968.31
2022-07-28T01:17:44.224Z,99972.53
2022-07-28T01:20:19.373Z,99968.41
2022-07-28T01:23:02.429Z,99965.56
2022-07-28T01:25:48.473Z,99970.19
2022-07-28T01:28:38.145Z,99973.47
2022-07-28T01:31:09.837Z,99971.59
2022-07-28T01:33:48.407Z,99973.84
2022-07-28T01:36:31.714Z,99973.28
2022-07-28T01:39:03.364Z,99971.81
2022-07-28T01:41:38.469Z,99975.84
2022-07-28T01:44:13.165Z,99979.56
2022-07-28T01:46:44.586Z,99979.97
2022-07-28T01:49:19.671Z,99987.63
2022-07-28T01:51:51.106Z,99982.22
2022-07-28T01:54:25.690Z,99989.38
2022-07-28T01:56:57.152Z,99985.37
2022-07-28T01:59:26.733Z,99982.72
2022-07-28T02:01:56.423Z,99988.06
2022-07-28T02:04:25.067Z,99986.53
2022-07-28T02:06:54.339Z,99976.97
2022-07-28T02:09:23.481Z,99986.41
2022-07-28T02:11:53.574Z,99972.19
2022-07-28T02:14:26.397Z,99973.75
2022-07-28T02:16:57.808Z,99970.34
2022-07-28T02:19:25.883Z,99974.59
2022-07-28T02:21:54.960Z,99975.69
2022-07-28T02:24:28.616Z,99973.62
2022-07-28T02:27:00.988Z,99974.56
2022-07-28T02:29:50.312Z,99978.22
2022-07-28T02:32:34.499Z,99969.38
2022-07-28T02:35:12.511Z,99975.69
2022-07-28T02:37:44.685Z,99979.78
2022-07-28T02:40:15.898Z,99982.59
2022-07-28T02:42:46.896Z,99986.66
2022-07-28T02:45:17.241Z,99990.12
2022-07-28T02:47:49.003Z,99990.12
2022-07-28T02:50:21.187Z,99987.91
2022-07-28T02:52:50.059Z,99984.50
2022-07-28T02:55:19.425Z,99991.88
2022-07-28T02:57:50.968Z,99993.69
2022-07-28T03:00:23.743Z,100000.13
2022-07-28T03:02:53.797Z,100000.81
2022-07-28T03:05:22.310Z,100000.97
2022-07-28T03:07:52.942Z,100012.28
2022-07-28T03:10:33.049Z,100010.13
2022-07-28T03:13:03.771Z,100013.94
2022-07-28T03:15:31.624Z,100006.87
2022-07-28T03:18:01.492Z,100008.09
2022-07-28T03:20:31.054Z,100019.72
2022-07-28T03:22:59.588Z,100017.13
2022-07-28T03:25:39.514Z,100015.94
2022-07-28T03:28:09.428Z,100006.97
2022-07-28T03:30:42.280Z,100013.16
2022-07-28T03:33:12.032Z,100008.81
2022-07-28T03:35:48.822Z,100020.13
2022-07-28T03:38:23.851Z,100017.47
2022-07-28T03:40:56.835Z,100020.19
2022-07-28T03:43:26.697Z,100021.66
2022-07-28T03:45:55.129Z,100032.00
2022-07-28T03:48:29.646Z,100031.44
2022-07-28T03:50:58.995Z,100036.84
2022-07-28T03:53:28.922Z,100033.84
2022-07-28T03:55:57.673Z,100035.78
2022-07-28T03:58:28.933Z,100035.28
2022-07-28T04:00:57.675Z,100038.69
2022-07-28T04:03:37.656Z,100045.22
2022-07-28T04:06:13.291Z,100050.47
2022-07-28T04:08:43.786Z,100049.97
2022-07-28T04:11:11.833Z,100051.41
2022-07-28T04:13:40.052Z,100046.84
2022-07-28T04:16:09.369Z,100046.12
2022-07-28T04:18:37.405Z,100054.31
2022-07-28T04:21:07.709Z,100050.31
2022-07-28T04:23:36.217Z,100052.34
2022-07-28T04:26:04.486Z,100050.41
2022-07-28T04:28:33.071Z,100051.97
2022-07-28T04:31:01.217Z,100053.03
2022-07-28T04:33:30.771Z,100049.19
2022-07-28T04:36:01.727Z,100053.16
2022-07-28T04:38:30.884Z,100064.75
2022-07-28T04:40:59.636Z,100058.69
2022-07-28T04:43:27.927Z,100057.78
2022-07-28T04:45:56.568Z,100059.44
2022-07-28T04:48:25.147Z,100062.09
2022-07-28T04:50:53.462Z,100057.84
2022-07-28T04:53:24.436Z,100067.87
2022-07-28T04:55:54.610Z,100060.13
2022-07-28T04:58:24.496Z,100067.13
2022-07-28T05:00:52.713Z,100055.81
2022-07-28T05:03:21.349Z,100058.47
2022-07-28T05:05:54.324Z,100057.25
2022-07-28T05:08:25.781Z,100060.31
2022-07-28T05:10:56.840Z,100066.09
2022-07-28T05:13:33.265Z,100066.28
2022-07-28T05:16:03.465Z,100071.59
2022-07-28T05:18:31.986Z,100068.75
2022-07-28T05:21:00.196Z,100074.97
2022-07-28T05:23:29.310Z,100078.63
2022-07-28T05:25:57.067Z,100077.63
2022-07-28T05:28:27.390Z,100081.91
2022-07-28T05:31:03.572Z,100085.34
2022-07-28T05:33:39.951Z,100091.31
2022-07-28T05:36:40.054Z,100087.28
2022-07-28T05:39:08.361Z,100083.22
2022-07-28T05:41:36.778Z,100084.06
2022-07-28T05:44:05.123Z,100092.47
2022-07-28T05:46:33.284Z,100096.53
2022-07-28T05:49:06.376Z,100097.22
2022-07-28T05:51:41.556Z,100108.06
2022-07-28T05:54:10.459Z,100103.69
2022-07-28T05:56:38.521Z,100103.94
2022-07-28T05:59:10.288Z,100099.34
2022-07-28T06:01:46.275Z,100108.06
2022-07-28T06:04:28.634Z,100109.19
2022-07-28T06:07:22.478Z,100111.84
2022-07-28T06:10:13.110Z,100114.69
2022-07-28T06:12:56.789Z,100122.81
2022-07-28T06:15:28.626Z,100116.53
2022-07-28T06:17:57.298Z,100115.97
2022-07-28T06:20:45.071Z,100118.22
2022-07-28T06:28:37.580Z,100125.22
2022-07-28T06:36:03.720Z,100134.69
2022-07-28T06:45:54.678Z,100122.75
2022-07-28T06:54:59.402Z,100123.56
2022-07-28T06:57:33.589Z,100129.56
2022-07-28T07:00:04.213Z,100139.75
2022-07-28T07:02:37.432Z,100137.84
2022-07-28T07:05:06.937Z,100145.87
2022-07-28T07:07:37.415Z,100139.53
2022-07-28T07:10:08.651Z,100142.37
2022-07-28T07:12:45.319Z,100138.38
2022-07-28T07:15:16.317Z,100134.41
2022-07-28T07:17:44.037Z,100137.84
2022-07-28T07:20:14.445Z,100137.25
2022-07-28T07:22:47.124Z,100142.13
2022-07-28T07:25:19.434Z,100149.09
2022-07-28T07:27:52.746Z,100137.19
2022-07-28T07:30:21.356Z,100149.03
2022-07-28T07:32:50.379Z,100147.06
2022-07-28T07:35:19.569Z,100140.00
2022-07-28T07:38:04.840Z,100141.69
2022-07-28T07:41:04.446Z,100148.25
2022-07-28T07:43:42.365Z,100137.88
2022-07-28T07:46:22.164Z,100135.63
2022-07-28T07:49:02.430Z,100143.13
2022-07-28T07:51:31.043Z,100132.91
2022-07-28T07:53:59.624Z,100133.97
2022-07-28T07:56:28.000Z,100136.91
2022-07-28T07:58:57.212Z,100133.41
2022-07-28T08:01:26.199Z,100141.59
2022-07-28T08:03:55.071Z,100140.12
2022-07-28T08:06:26.568Z,100135.94
2022-07-28T08:08:56.478Z,100142.84
2022-07-28T08:11:24.953Z,100142.81
2022-07-28T08:13:58.855Z,100137.91
2022-07-28T08:16:29.170Z,100138.44
2022-07-28T08:19:11.046Z,100131.91
2022-07-28T08:21:46.832Z,100138.31
2022-07-28T08:24:33.736Z,100131.25
2022-07-28T08:27:20.640Z,100130.81
2022-07-28T08:29:59.328Z,100130.28
2022-07-28T08:32:41.618Z,100133.66
2022-07-28T08:35:32.417Z,100130.28
2022-07-28T08:38:06.520Z,100128.44
2022-07-28T08:40:39.608Z,100132.28
2022-07-28T08:43:21.143Z,100136.31
2022-07-28T08:45:50.125Z,100131.44
2022-07-28T08:48:23.667Z,100135.63
2022-07-28T08:50:52.784Z,100131.31
2022-07-28T08:53:31.502Z,100125.16
2022-07-28T09:03:22.272Z,100124.87
2022-07-28T09:05:54.144Z,100125.47
2022-07-28T09:08:22.933Z,100119.06
2022-07-28T09:10:51.992Z,100125.59
2022-07-28T09:13:24.614Z,100125.28
2022-07-28T09:20:17.569Z,100114.31
2022-07-28T09:27:14.954Z,100114.38
2022-07-28T09:30:15.810Z,100114.97
2022-07-28T09:33:41.129Z,100113.06
2022-07-28T09:36:31.240Z,100111.69
2022-07-28T09:39:04.268Z,100110.72
2022-07-28T09:41:49.626Z,100102.72
2022-07-28T09:44:27.747Z,100108.91
2022-07-28T09:47:28.263Z,100101.00
2022-07-28T09:49:56.753Z,100096.28
2022-07-28T09:52:32.421Z,100103.00
2022-07-28T09:55:05.349Z,100101.00
2022-07-28T09:57:36.348Z,100101.91
2022-07-28T10:00:09.993Z,100088.69
2022-07-28T10:02:47.933Z,100092.84
2022-07-28T10:05:20.138Z,100088.50
2022-07-28T10:07:52.636Z,100091.00
2022-07-28T10:10:29.508Z,100081.41
2022-07-28T10:13:06.247Z,100090.47
2022-07-28T10:16:10.910Z,100078.31
2022-07-28T10:18:42.891Z,100074.72
2022-07-28T10:21:14.966Z,100067.72
2022-07-28T10:24:09.556Z,100071.00
2022-07-28T10:26:53.607Z,100070.50
2022-07-28T10:29:22.702Z,100072.16
2022-07-28T10:31:53.165Z,100063.69
2022-07-28T10:34:31.926Z,100064.78
2022-07-28T10:37:03.605Z,100064.19
2022-07-28T10:39:40.387Z,100058.63
2022-07-28T10:42:13.048Z,100054.28
2022-07-28T10:44:48.458Z,100056.69
2022-07-28T10:47:32.430Z,100059.19
2022-07-28T10:50:08.836Z,100047.25
2022-07-28T10:52:50.691Z,100040.59
2022-07-28T10:55:43.653Z,100041.41
2022-07-28T10:58:28.148Z,100051.38
2022-07-28T11:00:59.917Z,100052.69
2022-07-28T11:03:37.969Z,100039.84
2022-07-28T11:06:26.059Z,100044.25
2022-07-28T11:09:01.286Z,100035.31
2022-07-28T11:11:48.580Z,100038.72
2022-07-28T11:14:27.135Z,100034.09
2022-07-28T11:17:15.142Z,100030.00
2022-07-28T11:20:16.139Z,100028.56
2022-07-28T11:23:28.614Z,100030.56
2022-07-28T11:25:40.034Z,100027.97
2022-07-28T11:28:08.470Z,100029.47
2022-07-28T11:30:42.964Z,100020.88
2022-07-28T12:11:36.715Z,100019.16
2022-07-28T12:14:17.903Z,100012.56
2022-07-28T12:16:50.966Z,100010.50
2022-07-28T12:19:40.302Z,100010.94
2022-07-28T12:22:31.652Z,100010.91
2022-07-28T12:25:14.486Z,100011.50
2022-07-28T12:28:01.972Z,100008.97
2022-07-28T12:30:33.883Z,100000.28
2022-07-28T12:33:03.750Z,100003.37
2022-07-28T12:35:41.596Z,100000.41
2022-07-28T12:38:14.331Z,99999.31
2022-07-28T12:40:46.924Z,100001.62
2022-07-28T12:43:30.832Z,100004.38
2022-07-28T12:45:58.957Z,100002.87
2022-07-28T12:48:28.809Z,100007.38
2022-07-28T12:51:04.731Z,99997.34
2022-07-28T12:53:35.875Z,99997.38
2022-07-28T12:56:05.575Z,99995.19
2022-07-28T12:58:34.794Z,99999.50
2022-07-28T13:01:09.162Z,99984.66
2022-07-28T13:03:50.621Z,99987.50
2022-07-28T13:06:22.291Z,99986.59
2022-07-28T13:08:54.466Z,99984.47
2022-07-28T13:11:47.483Z,99982.12
2022-07-28T13:14:16.637Z,99984.25
2022-07-28T13:17:02.767Z,99984.69
2022-07-28T13:19:31.023Z,99984.28
2022-07-28T13:22:04.112Z,99984.03
2022-07-28T13:24:35.333Z,99972.41
2022-07-28T13:27:07.482Z,99978.84
2022-07-28T13:29:35.594Z,99966.97
2022-07-28T13:32:05.372Z,99973.84
2022-07-28T13:34:34.615Z,99962.37
2022-07-28T13:37:04.007Z,99965.06
2022-07-28T13:39:38.686Z,99967.09
2022-07-28T13:42:07.092Z,99952.25
2022-07-28T13:44:39.278Z,99956.63
2022-07-28T13:47:12.008Z,99959.53
2022-07-28T13:49:46.108Z,99950.38
2022-07-28T13:52:32.794Z,99958.28
2022-07-28T13:55:06.357Z,99952.88
2022-07-28T13:57:36.466Z,99948.03
2022-07-28T14:00:07.919Z,99946.78
2022-07-28T14:02:37.398Z,99948.88
2022-07-28T14:05:06.151Z,99942.50
2022-07-28T14:07:34.555Z,99937.06
2022-07-28T14:10:03.140Z,99944.12
2022-07-28T14:12:31.535Z,99943.59
2022-07-28T14:15:00.239Z,99940.66
2022-07-28T14:17:45.867Z,99947.72
2022-07-28T14:20:15.134Z,99945.69
2022-07-28T14:22:44.720Z,99942.84
2022-07-28T14:25:19.426Z,99941.16
2022-07-28T14:27:52.886Z,99934.09
2022-07-28T14:30:21.744Z,99937.41
2022-07-28T14:32:50.111Z,99936.88
2022-07-28T14:35:18.753Z,99931.19
2022-07-28T14:38:23.560Z,99936.78
2022-07-28T14:40:39.991Z,99930.72
2022-07-28T14:43:08.422Z,99928.16
2022-07-28T14:46:09.274Z,99928.22
2022-07-28T14:48:25.266Z,99926.66
2022-07-28T14:50:55.543Z,99925.87
2022-07-28T14:53:24.271Z,99919.31
2022-07-28T14:55:56.761Z,99920.81
2022-07-28T14:58:24.780Z,99917.91
2022-07-28T15:00:52.802Z,99921.28
2022-07-28T15:03:21.304Z,99923.00
2022-07-28T15:05:49.209Z,99913.88
2022-07-28T15:08:18.415Z,99911.72
2022-07-28T15:10:50.147Z,99916.09
2022-07-28T15:13:18.157Z,99915.06
2022-07-28T15:15:46.852Z,99905.66
2022-07-28T15:18:15.050Z,99913.06
2022-07-28T15:20:43.687Z,99905.50
2022-07-28T15:23:11.931Z,99901.09
2022-07-28T15:25:39.751Z,99909.91
2022-07-28T15:28:08.129Z,99910.91
2022-07-28T15:30:36.375Z,99906.47
2022-07-28T15:33:11.464Z,99911.41
2022-07-28T15:35:56.503Z,99908.69
2022-07-28T15:38:29.149Z,99910.91
2022-07-28T15:40:59.056Z,99905.72
2022-07-28T15:43:28.221Z,99906.69
2022-07-28T15:45:58.867Z,99904.41
2022-07-28T15:48:29.592Z,99908.50
2022-07-28T15:51:00.677Z,99902.66
2022-07-28T15:53:30.026Z,99902.87
2022-07-28T15:55:58.765Z,99901.22
2022-07-28T15:58:28.663Z,99903.13
2022-07-28T16:00:56.800Z,99899.59
2022-07-28T16:03:30.085Z,99896.63
2022-07-28T16:05:59.003Z,99902.84
2022-07-28T16:08:27.630Z,99895.56
2022-07-28T16:10:56.595Z,99892.03
2022-07-28T16:13:36.602Z,99895.00
2022-07-28T16:16:11.468Z,99891.03
2022-07-28T16:18:41.781Z,99893.13
2022-07-28T16:21:13.337Z,99897.72
2022-07-28T16:23:40.876Z,99896.72
2022-07-28T16:26:09.489Z,99886.41
2022-07-28T16:28:38.080Z,99892.56
2022-07-28T16:31:06.334Z,99895.47
2022-07-28T16:33:35.154Z,99889.13
2022-07-28T16:36:04.332Z,99897.97
2022-07-28T16:38:32.441Z,99892.72
2022-07-28T16:41:00.783Z,99893.22
2022-07-28T16:43:29.740Z,99891.09
2022-07-28T16:45:57.725Z,99897.50
2022-07-28T16:48:26.036Z,99903.59
2022-07-28T16:50:54.123Z,99898.19
2022-07-28T16:53:22.601Z,99901.94
2022-07-28T16:55:51.032Z,99903.09
2022-07-28T16:58:20.137Z,99905.03
2022-07-28T17:00:48.270Z,99901.03
2022-07-28T17:03:17.199Z,99903.03
2022-07-28T17:05:45.524Z,99900.38
2022-07-28T17:08:13.924Z,99907.31
2022-07-28T17:10:42.191Z,99905.75
2022-07-28T17:13:13.206Z,99900.72
2022-07-28T17:15:41.023Z,99904.06
2022-07-28T17:18:08.835Z,99906.72
2022-07-28T17:20:40.009Z,99911.47
2022-07-28T17:23:08.406Z,99907.69
2022-07-28T17:28:25.411Z,99913.16
2022-07-28T17:30:53.630Z,99907.94
2022-07-28T17:33:21.741Z,99908.09
2022-07-28T17:35:52.827Z,99909.37
2022-07-28T17:38:28.290Z,99913.59
2022-07-28T17:41:00.601Z,99915.03
2022-07-28T17:43:29.162Z,99915.91
2022-07-28T17:45:57.390Z,99914.59
2022-07-28T17:48:26.234Z,99914.81
2022-07-28T17:50:54.984Z,99916.50
2022-07-28T17:53:23.919Z,99915.44
2022-07-28T17:56:00.550Z,99923.38
2022-07-28T17:58:32.316Z,99918.97
2022-07-28T18:01:11.147Z,99917.47
2022-07-28T18:03:59.836Z,99918.28
2022-07-28T18:06:34.829Z,99921.12
2022-07-28T18:09:07.852Z,99919.50
2022-07-28T18:11:57.484Z,99920.22
2022-07-28T18:14:27.737Z,99927.25
2022-07-28T18:16:56.257Z,99932.28
2022-07-28T18:19:24.130Z,99934.94
2022-07-28T18:21:52.678Z,99935.50
2022-07-28T18:24:22.757Z,99934.94
2022-07-28T18:26:51.974Z,99937.34
2022-07-28T18:29:21.609Z,99939.47
2022-07-28T18:31:51.133Z,99944.25
2022-07-28T18:34:20.847Z,99946.53
2022-07-28T18:36:54.743Z,99944.81
2022-07-28T18:39:25.346Z,99947.44
2022-07-28T18:41:56.783Z,99947.28
2022-07-28T18:44:24.763Z,99947.47
2022-07-28T18:46:53.622Z,99949.44
2022-07-28T18:49:21.822Z,99967.06
2022-07-28T18:51:50.017Z,99970.66
2022-07-28T18:54:25.130Z,99970.13
2022-07-28T18:56:56.766Z,99974.25
2022-07-28T18:59:25.572Z,99972.84
2022-07-28T19:01:53.901Z,99974.53
2022-07-28T19:04:22.103Z,99974.25
2022-07-28T19:06:50.226Z,99981.62
2022-07-28T19:09:18.324Z,99987.69
2022-07-28T19:11:46.906Z,99989.47
2022-07-28T19:14:16.164Z,99989.00
2022-07-28T19:16:44.615Z,99984.47
2022-07-28T19:19:13.573Z,99979.16
2022-07-28T19:21:43.309Z,99981.16
2022-07-28T19:24:15.796Z,99982.97
2022-07-28T19:26:47.657Z,99984.84
2022-07-28T19:29:16.053Z,99982.69
2022-07-28T19:31:45.130Z,99984.53
2022-07-28T19:34:13.848Z,99980.50
2022-07-28T19:36:42.514Z,99990.97
2022-07-28T19:39:12.338Z,99986.72
2022-07-28T19:41:40.751Z,99984.72
2022-07-28T19:44:09.642Z,99989.12
2022-07-28T19:46:39.431Z,99996.75
2022-07-28T19:49:08.321Z,100003.69
2022-07-28T19:51:40.384Z,100003.84
2022-07-28T19:54:08.911Z,100008.03
2022-07-28T19:56:39.672Z,100011.62
2022-07-28T19:59:08.051Z,100010.34
2022-07-28T20:01:36.183Z,100004.62
2022-07-28T20:04:16.201Z,100004.72
2022-07-28T20:06:44.403Z,100013.53
2022-07-28T20:09:13.849Z,100011.94
2022-07-28T20:11:43.690Z,100021.25
2022-07-28T20:14:11.593Z,100014.44
2022-07-28T20:16:40.656Z,100017.59
2022-07-28T20:19:12.335Z,100020.09
2022-07-28T20:21:42.115Z,100020.84
2022-07-28T20:24:13.214Z,100019.84
2022-07-28T20:26:43.552Z,100016.94
2022-07-28T20:29:15.122Z,100022.84
2022-07-28T20:31:44.189Z,100026.78
2022-07-28T20:34:15.295Z,100022.59
2022-07-28T20:36:45.298Z,100027.75
2022-07-28T20:39:42.186Z,100030.91
2022-07-28T20:42:02.545Z,100033.22
2022-07-28T20:44:31.540Z,100034.06
2022-07-28T20:47:00.789Z,100034.34
2022-07-28T20:49:29.709Z,100038.72
2022-07-28T20:51:58.872Z,100038.38
2022-07-28T20:54:27.206Z,100036.72
2022-07-28T20:56:55.575Z,100039.34
2022-07-28T20:59:27.645Z,100038.16
2022-07-28T21:01:56.981Z,100040.50
2022-07-28T21:04:26.565Z,100037.78
2022-07-28T21:07:01.746Z,100043.53
2022-07-28T21:09:31.932Z,100038.81
2022-07-28T21:12:00.346Z,100041.06
2022-07-28T21:14:28.428Z,100041.72
2022-07-28T21:16:57.254Z,100039.44
2022-07-28T21:19:25.481Z,100041.13
2022-07-28T21:21:53.508Z,100048.78
2022-07-28T21:24:22.316Z,100040.00
2022-07-28T21:26:51.747Z,100042.75
2022-07-28T21:32:04.771Z,100045.94
2022-07-28T21:34:35.435Z,100047.72
2022-07-28T21:37:05.033Z,100050.41
2022-07-28T21:39:34.245Z,100050.16
2022-07-28T21:42:07.578Z,100064.22
2022-07-28T21:44:37.564Z,100049.78
2022-07-28T21:47:06.278Z,100059.16
2022-07-28T21:49:34.487Z,100068.66
2022-07-28T21:52:02.967Z,100063.56
2022-07-28T21:54:31.754Z,100067.13
2022-07-28T21:57:00.085Z,100066.59
2022-07-28T21:59:28.070Z,100078.13
2022-07-28T22:01:57.786Z,100087.25
2022-07-28T22:04:27.421Z,100096.12
2022-07-28T22:06:55.562Z,100099.44
2022-07-28T22:09:24.123Z,100099.50
2022-07-28T22:11:53.629Z,100094.56
2022-07-28T22:14:26.472Z,100092.91
2022-07-28T22:16:55.543Z,100091.91
2022-07-28T22:19:26.298Z,100089.53
2022-07-28T22:22:01.607Z,100092.66
2022-07-28T22:24:32.645Z,100094.75
2022-07-28T22:27:04.191Z,100098.75
2022-07-28T22:29:33.320Z,100104.44
2022-07-28T22:32:08.053Z,100104.19
2022-07-28T22:34:39.499Z,100105.25
2022-07-28T22:37:13.359Z,100097.19
2022-07-28T22:39:44.178Z,100094.78
2022-07-28T22:42:16.963Z,100104.84
2022-07-28T22:44:47.427Z,100098.66
2022-07-28T22:47:20.292Z,100089.84
2022-07-28T22:49:53.670Z,100101.94
2022-07-28T22:52:28.867Z,100104.56
2022-07-28T22:54:59.436Z,100098.66
2022-07-28T22:57:34.316Z,100095.56
2022-07-28T23:00:09.379Z,100094.28
2022-07-28T23:02:40.593Z,100093.66
2022-07-28T23:05:10.619Z,100096.22
2022-07-28T23:07:52.835Z,100091.44
2022-07-28T23:10:27.760Z,100091.72
2022-07-28T23:12:58.812Z,100090.56
2022-07-28T23:15:40.657Z,100094.37
2022-07-28T23:18:14.307Z,100095.66
2022-07-28T23:20:45.837Z,100098.03
2022-07-28T23:23:18.945Z,100100.47
2022-07-28T23:25:48.376Z,100096.38
2022-07-28T23:28:18.874Z,100095.84
2022-07-28T23:30:51.764Z,100092.19
2022-07-28T23:33:56.700Z,100098.37
2022-07-28T23:36:25.828Z,100096.16
2022-07-28T23:39:00.264Z,100095.56
2022-07-28T23:41:29.232Z,100103.16
2022-07-28T23:43:58.088Z,100095.44
2022-07-28T23:46:26.107Z,100101.47
2022-07-28T23:48:54.196Z,100101.78
2022-07-28T23:51:46.578Z,100105.56
2022-07-28T23:54:11.100Z,100103.34
2022-07-28T23:56:43.866Z,100106.22
2022-07-28T23:59:14.089Z,100100.66
